Barbers Point NAS, Hawaii
Current Conditions -  °F | °C
As of 2:53 PM on Sunday 23 Nov 2014 (Local Time) from PHJR Reporting Station
Overcast Overcast  
Wind Chill: 81°   Ceiling: 5500
Heat Index: 84°   Visibility: 10mi
Dew Point: 69°   Wind: 9mph
Humidity: 67%   Direction: 200°SSW
Pressure: 29.91"   Gusts: NA
Location:  21.32°N, 158.08°W
Report Text: PHJR 240053Z 20008KT 10SM OVC055 27/21 A2991 RMK AO2 SLP136 T02720206
Loading
Personal Weather Stations






























Interactive Weather Map New forecast layout! Learn more

10-Day Weather Forecast

Advertisements
Track Severe Weather on mobile